Time;durP1;ratioP1;P1;durP2;ratioP2;P2;SDS_P1;SDS_P2;PMS_P1;PMS_P2;Temp;Humidity;BMP_temperature;BMP_pressure;BME280_temperature;BME280_humidity;BME280_pressure;Samples;Min_cycle;Max_cycle;Signal;HPM_P1;HPM_P2
2023/09/23 00:00:15;;;;;;;5.70;1.80;;;13.00;99.90;;;;;;4988521;28;20049;-79
2023/09/23 00:02:44;;;;;;;3.40;1.52;;;13.00;99.90;;;;;;5008676;28;20080;-79
2023/09/23 00:05:11;;;;;;;4.93;1.77;;;13.00;99.90;;;;;;4991829;28;20073;-79
2023/09/23 00:07:41;;;;;;;5.00;1.80;;;13.00;99.90;;;;;;4975358;28;20048;-79
2023/09/23 00:10:08;;;;;;;4.95;1.80;;;13.00;99.90;;;;;;5005418;28;20476;-79
2023/09/23 00:12:40;;;;;;;4.47;1.63;;;13.00;99.90;;;;;;5041904;28;20048;-79
2023/09/23 00:15:07;;;;;;;5.18;1.70;;;12.90;99.90;;;;;;5024940;28;20071;-78
2023/09/23 00:17:35;;;;;;;3.72;1.55;;;12.90;99.90;;;;;;5017751;28;20038;-79
2023/09/23 00:20:04;;;;;;;4.60;1.60;;;12.90;99.90;;;;;;4989278;28;20034;-79
2023/09/23 00:22:30;;;;;;;3.53;1.50;;;12.90;99.90;;;;;;4991494;28;20041;-79
2023/09/23 00:24:56;;;;;;;3.95;1.58;;;12.90;99.90;;;;;;5000560;28;20492;-79
2023/09/23 00:27:24;;;;;;;3.80;1.50;;;12.90;99.90;;;;;;4983502;28;20053;-79
2023/09/23 00:29:50;;;;;;;4.03;1.40;;;12.90;99.90;;;;;;4973080;28;20045;-79
2023/09/23 00:32:17;;;;;;;3.10;1.45;;;12.90;99.90;;;;;;4978266;28;20049;-79
2023/09/23 00:34:43;;;;;;;2.70;1.30;;;12.90;99.90;;;;;;4986539;28;20172;-80
2023/09/23 00:37:09;;;;;;;3.80;1.45;;;12.90;99.90;;;;;;5024079;28;20109;-80
2023/09/23 00:39:42;;;;;;;2.72;1.30;;;12.90;99.90;;;;;;4965495;28;20116;-80
2023/09/23 00:42:10;;;;;;;4.43;1.38;;;12.90;99.90;;;;;;4991023;28;20511;-80
2023/09/23 00:44:39;;;;;;;3.45;1.40;;;12.90;99.90;;;;;;4980007;28;20049;-80
2023/09/23 00:47:06;;;;;;;3.50;1.33;;;12.80;99.90;;;;;;4991772;28;20132;-80
2023/09/23 00:49:34;;;;;;;5.38;1.70;;;12.80;99.90;;;;;;5010789;28;20561;-79
2023/09/23 00:52:02;;;;;;;4.65;1.50;;;12.80;99.90;;;;;;5008865;28;20054;-80
2023/09/23 00:54:31;;;;;;;2.85;1.40;;;12.80;99.90;;;;;;4979261;28;20038;-80
2023/09/23 00:56:58;;;;;;;3.13;1.40;;;12.80;99.90;;;;;;4992143;28;20523;-80
2023/09/23 00:59:24;;;;;;;3.97;1.60;;;12.80;99.90;;;;;;4979752;28;20495;-80
2023/09/23 01:01:51;;;;;;;4.07;1.63;;;12.80;99.90;;;;;;4977197;28;20046;-80
2023/09/23 01:04:16;;;;;;;4.68;1.73;;;12.80;99.90;;;;;;4978108;28;20121;-80
2023/09/23 01:06:43;;;;;;;3.53;1.50;;;12.80;99.90;;;;;;4976389;28;20117;-80
2023/09/23 01:09:15;;;;;;;4.50;1.60;;;12.80;99.90;;;;;;5010140;28;20072;-81
2023/09/23 01:11:41;;;;;;;4.85;1.40;;;12.80;99.90;;;;;;5009960;28;20045;-80
2023/09/23 01:14:07;;;;;;;3.55;1.50;;;12.70;99.90;;;;;;4978670;28;20045;-80
2023/09/23 01:16:32;;;;;;;5.00;1.60;;;12.70;99.90;;;;;;4993807;28;20038;-80
2023/09/23 01:18:58;;;;;;;4.22;1.60;;;12.90;99.90;;;;;;4992645;28;20038;-79
2023/09/23 01:21:24;;;;;;;4.45;1.80;;;12.70;99.90;;;;;;4993899;28;20484;-80
2023/09/23 01:23:50;;;;;;;2.75;1.20;;;12.70;99.90;;;;;;5006382;28;20054;-79
2023/09/23 01:26:16;;;;;;;3.40;1.40;;;12.70;99.90;;;;;;4991002;28;20046;-79
2023/09/23 01:28:43;;;;;;;3.63;1.55;;;12.70;99.90;;;;;;4988587;28;20057;-80
2023/09/23 01:31:09;;;;;;;4.55;1.70;;;12.70;99.90;;;;;;4995120;28;20109;-80
2023/09/23 01:33:35;;;;;;;5.20;1.70;;;12.60;99.90;;;;;;5010629;28;20677;-80
2023/09/23 01:36:04;;;;;;;3.72;1.42;;;12.60;99.90;;;;;;4962545;28;20114;-80
2023/09/23 01:38:30;;;;;;;3.33;1.45;;;12.60;99.90;;;;;;4993786;28;20053;-80
2023/09/23 01:40:56;;;;;;;2.42;1.30;;;12.60;99.90;;;;;;4992750;28;20041;-80
2023/09/23 01:43:22;;;;;;;3.13;1.50;;;12.60;99.90;;;;;;5026426;28;20048;-79
2023/09/23 01:45:48;;;;;;;3.20;1.40;;;12.60;99.90;;;;;;5025160;28;20524;-80
2023/09/23 01:48:15;;;;;;;4.35;1.38;;;12.60;99.90;;;;;;4993022;28;20054;-80
2023/09/23 01:50:41;;;;;;;4.28;1.55;;;12.60;99.90;;;;;;4990358;28;20053;-79
2023/09/23 01:53:08;;;;;;;3.28;1.45;;;12.60;99.90;;;;;;4998241;28;20615;-79
2023/09/23 01:55:34;;;;;;;3.08;1.40;;;12.60;99.90;;;;;;5007857;28;20042;-79
2023/09/23 01:58:01;;;;;;;3.35;1.35;;;12.60;99.90;;;;;;4999705;28;20038;-78
2023/09/23 02:00:28;;;;;;;3.22;1.40;;;12.60;99.90;;;;;;5023764;28;20544;-79
2023/09/23 02:02:55;;;;;;;3.92;1.52;;;12.50;99.90;;;;;;4958983;28;20050;-79
2023/09/23 02:05:27;;;;;;;3.45;1.42;;;12.50;99.90;;;;;;5009310;28;20586;-79
2023/09/23 02:07:54;;;;;;;3.47;1.50;;;12.50;99.90;;;;;;5010349;28;20073;-79
2023/09/23 02:10:24;;;;;;;3.80;1.40;;;12.50;99.90;;;;;;4993049;28;20038;-79
2023/09/23 02:12:50;;;;;;;2.90;1.13;;;12.50;99.90;;;;;;5022929;28;20039;-79
2023/09/23 02:15:16;;;;;;;2.80;1.20;;;12.50;99.90;;;;;;4995027;28;20088;-79
2023/09/23 02:17:45;;;;;;;2.90;1.30;;;12.50;99.90;;;;;;4992603;28;20076;-79
2023/09/23 02:20:17;;;;;;;2.67;1.05;;;12.40;99.90;;;;;;4987374;28;20416;-79
2023/09/23 02:22:43;;;;;;;2.25;1.15;;;12.40;99.90;;;;;;4993770;28;20103;-79
2023/09/23 02:25:12;;;;;;;3.33;1.40;;;12.40;99.90;;;;;;4977377;28;20045;-79
2023/09/23 02:27:38;;;;;;;3.17;1.17;;;12.40;99.90;;;;;;4992605;28;20038;-79
2023/09/23 02:30:06;;;;;;;4.30;1.20;;;12.30;99.90;;;;;;4957648;28;20389;-79
2023/09/23 02:32:32;;;;;;;1.92;1.08;;;12.30;99.90;;;;;;4974121;28;20493;-79
2023/09/23 02:34:57;;;;;;;2.92;1.20;;;12.30;99.90;;;;;;4976370;28;20384;-79
2023/09/23 02:37:26;;;;;;;4.60;1.60;;;12.40;99.90;;;;;;4991156;28;20052;-79
2023/09/23 02:39:52;;;;;;;3.60;1.50;;;12.40;99.90;;;;;;5017938;28;20046;-79
2023/09/23 02:42:17;;;;;;;4.03;1.60;;;12.40;99.90;;;;;;5008124;28;20038;-79
2023/09/23 02:44:43;;;;;;;3.83;1.58;;;12.40;99.90;;;;;;5023935;28;20145;-79
2023/09/23 02:47:09;;;;;;;4.97;1.70;;;12.40;99.90;;;;;;4991271;28;20287;-79
2023/09/23 02:49:35;;;;;;;5.72;1.85;;;12.40;99.90;;;;;;5008067;28;20065;-79
2023/09/23 02:52:01;;;;;;;5.43;1.98;;;12.30;99.90;;;;;;4958640;28;20064;-79
2023/09/23 02:54:27;;;;;;;6.40;2.33;;;12.40;99.90;;;;;;5009493;28;20038;-79
2023/09/23 02:56:53;;;;;;;7.20;2.28;;;12.40;99.90;;;;;;5025386;28;20050;-79
2023/09/23 02:59:26;;;;;;;6.20;2.10;;;12.30;99.90;;;;;;5006404;28;20492;-79
2023/09/23 03:01:53;;;;;;;6.60;2.47;;;12.30;99.90;;;;;;4991430;28;20061;-79
2023/09/23 03:04:23;;;;;;;5.13;2.20;;;12.30;99.90;;;;;;5005366;28;20052;-79
2023/09/23 03:06:59;;;;;;;5.60;2.28;;;12.30;99.90;;;;;;4991407;28;20427;-78
2023/09/23 03:09:25;;;;;;;7.30;2.55;;;12.30;99.90;;;;;;5042215;28;20041;-79
2023/09/23 03:11:55;;;;;;;7.25;2.60;;;12.30;99.90;;;;;;4992429;28;20046;-78
2023/09/23 03:14:30;;;;;;;6.78;2.75;;;12.30;99.90;;;;;;5023513;28;20037;-78
2023/09/23 03:16:57;;;;;;;5.93;2.30;;;12.30;99.90;;;;;;4962428;28;20092;-78
2023/09/23 03:19:26;;;;;;;7.95;2.70;;;12.30;99.90;;;;;;5023992;28;20042;-78
2023/09/23 03:21:55;;;;;;;6.60;2.58;;;12.30;99.90;;;;;;5007145;28;20530;-78
2023/09/23 03:24:22;;;;;;;7.22;2.88;;;12.30;99.90;;;;;;5008736;28;20037;-79
2023/09/23 03:26:50;;;;;;;7.53;2.63;;;12.30;99.90;;;;;;5007925;28;20077;-79
2023/09/23 03:29:18;;;;;;;6.90;2.95;;;12.30;99.90;;;;;;5007819;28;20076;-78
2023/09/23 03:31:44;;;;;;;7.72;2.80;;;12.30;99.90;;;;;;4973858;28;20105;-78
2023/09/23 03:34:13;;;;;;;7.40;2.75;;;12.20;99.90;;;;;;4975345;28;20030;-79
2023/09/23 03:36:42;;;;;;;6.88;2.83;;;12.20;99.90;;;;;;4992657;28;20037;-78
2023/09/23 03:39:09;;;;;;;8.15;3.00;;;12.20;99.90;;;;;;5026025;28;20441;-78
2023/09/23 03:41:38;;;;;;;8.52;3.22;;;12.20;99.90;;;;;;5039090;28;20060;-78
2023/09/23 03:44:05;;;;;;;7.50;3.00;;;12.10;99.90;;;;;;5024124;28;20464;-79
2023/09/23 03:46:31;;;;;;;8.00;3.35;;;12.10;99.90;;;;;;4989891;28;20045;-79
2023/09/23 03:48:57;;;;;;;7.93;3.40;;;12.10;99.90;;;;;;4992078;28;20460;-79
2023/09/23 03:51:24;;;;;;;8.88;3.10;;;12.10;99.90;;;;;;5006393;28;20045;-79
2023/09/23 03:53:51;;;;;;;7.50;3.20;;;12.10;99.90;;;;;;4991423;28;20099;-79
2023/09/23 03:56:19;;;;;;;7.65;2.90;;;12.10;99.90;;;;;;4987918;28;20033;-79
2023/09/23 03:58:45;;;;;;;6.60;2.70;;;12.00;99.90;;;;;;4973630;28;20187;-78
2023/09/23 04:01:13;;;;;;;8.18;3.10;;;12.00;99.90;;;;;;4974098;28;20041;-78
2023/09/23 04:03:39;;;;;;;8.10;3.40;;;12.00;99.90;;;;;;5001737;28;20124;-78
2023/09/23 04:06:05;;;;;;;7.40;3.38;;;12.00;99.90;;;;;;4991221;28;20073;-79
2023/09/23 04:08:31;;;;;;;9.20;3.58;;;11.90;99.90;;;;;;4972138;28;20093;-79
2023/09/23 04:11:03;;;;;;;7.28;3.10;;;11.90;99.90;;;;;;4998296;28;20053;-80
2023/09/23 04:13:30;;;;;;;7.82;3.15;;;11.90;99.90;;;;;;5006943;28;20156;-79
2023/09/23 04:16:03;;;;;;;8.15;3.47;;;11.90;99.90;;;;;;5023683;28;20038;-79
2023/09/23 04:18:32;;;;;;;7.45;2.95;;;11.90;99.90;;;;;;4976912;28;20066;-79
2023/09/23 04:21:00;;;;;;;7.18;3.30;;;11.80;99.90;;;;;;4990469;28;20041;-79
2023/09/23 04:23:26;;;;;;;7.60;3.17;;;11.90;99.90;;;;;;4990838;28;20044;-79
2023/09/23 04:25:52;;;;;;;8.10;3.00;;;11.90;99.90;;;;;;4978252;28;20046;-79
2023/09/23 04:28:22;;;;;;;7.40;3.28;;;11.80;99.90;;;;;;4992645;28;20038;-79
2023/09/23 04:30:54;;;;;;;8.52;3.85;;;11.80;99.90;;;;;;5012325;28;20036;-79
2023/09/23 04:33:21;;;;;;;7.50;3.33;;;11.80;99.90;;;;;;4997020;28;20041;-79
2023/09/23 04:35:48;;;;;;;7.25;3.40;;;11.80;99.90;;;;;;4988010;28;20037;-79
2023/09/23 04:38:15;;;;;;;8.02;3.60;;;11.80;99.90;;;;;;4993284;28;20351;-79
2023/09/23 04:40:42;;;;;;;9.15;3.50;;;11.80;99.90;;;;;;4980469;28;20388;-79
2023/09/23 04:43:09;;;;;;;10.73;4.05;;;11.80;99.90;;;;;;4972964;28;20034;-79
2023/09/23 04:45:36;;;;;;;7.60;3.38;;;11.80;99.90;;;;;;4989450;28;20045;-79
2023/09/23 04:48:06;;;;;;;9.32;4.05;;;11.80;99.90;;;;;;4994590;28;20136;-79
2023/09/23 04:50:33;;;;;;;7.93;3.53;;;11.80;99.90;;;;;;5009409;28;20038;-79
2023/09/23 04:52:59;;;;;;;7.80;3.78;;;11.80;99.90;;;;;;4987959;28;20038;-79
2023/09/23 04:55:26;;;;;;;7.60;3.50;;;11.80;99.90;;;;;;4998413;28;20088;-79
2023/09/23 04:57:51;;;;;;;8.10;3.58;;;11.80;99.90;;;;;;4978036;28;20045;-79
2023/09/23 05:00:18;;;;;;;8.00;3.70;;;11.80;99.90;;;;;;5024218;28;20057;-79
2023/09/23 05:02:51;;;;;;;9.35;4.03;;;11.70;99.90;;;;;;4994349;28;20056;-79
2023/09/23 05:05:18;;;;;;;8.05;3.42;;;11.80;99.90;;;;;;4985872;28;20132;-79
2023/09/23 05:07:45;;;;;;;7.53;3.47;;;11.70;99.90;;;;;;4976713;28;20105;-79
2023/09/23 05:10:12;;;;;;;7.93;3.55;;;11.70;99.90;;;;;;4993754;28;20113;-79
2023/09/23 05:12:43;;;;;;;7.53;3.63;;;11.70;99.90;;;;;;4981797;28;20496;-79
2023/09/23 05:15:14;;;;;;;8.80;3.92;;;11.70;99.90;;;;;;4991621;28;20454;-79
2023/09/23 05:17:43;;;;;;;8.38;3.92;;;11.70;99.90;;;;;;5007299;28;20053;-79
2023/09/23 05:20:25;;;;;;;8.55;4.30;;;11.70;99.90;;;;;;5009496;28;20034;-79
2023/09/23 05:22:55;;;;;;;8.27;4.13;;;11.70;99.90;;;;;;4979898;28;20042;-79
2023/09/23 05:25:24;;;;;;;9.73;4.43;;;11.70;99.90;;;;;;5011159;28;20296;-79
2023/09/23 05:27:50;;;;;;;8.25;4.30;;;11.70;99.90;;;;;;5020152;28;20331;-79
2023/09/23 05:30:15;;;;;;;8.50;4.03;;;11.70;99.90;;;;;;4987650;28;20049;-79
2023/09/23 05:32:42;;;;;;;9.57;4.63;;;11.70;99.90;;;;;;4989499;28;20100;-79
2023/09/23 05:35:09;;;;;;;9.45;4.32;;;11.70;99.90;;;;;;5005704;28;20272;-79
2023/09/23 05:37:43;;;;;;;9.50;4.43;;;11.70;99.90;;;;;;5023268;28;20034;-79
2023/09/23 05:40:26;;;;;;;9.05;4.22;;;11.70;99.90;;;;;;5021549;28;20288;-79
2023/09/23 05:42:52;;;;;;;8.98;4.13;;;11.70;99.90;;;;;;4989291;28;20033;-79
2023/09/23 05:45:18;;;;;;;8.38;4.18;;;11.70;99.90;;;;;;5023699;28;20040;-79
2023/09/23 05:47:45;;;;;;;10.05;4.45;;;11.70;99.90;;;;;;5005913;28;20341;-79
2023/09/23 05:50:11;;;;;;;8.40;4.03;;;11.70;99.90;;;;;;5006925;28;20058;-79
2023/09/23 05:52:36;;;;;;;8.38;4.00;;;11.70;99.90;;;;;;5022100;28;20128;-79
2023/09/23 05:55:07;;;;;;;8.65;4.53;;;11.70;99.90;;;;;;4995981;28;20025;-79
2023/09/23 05:57:38;;;;;;;9.07;4.53;;;11.70;99.90;;;;;;4986450;28;20124;-79
2023/09/23 06:00:05;;;;;;;9.25;4.43;;;11.70;99.90;;;;;;5003613;28;20268;-79
2023/09/23 06:02:32;;;;;;;8.48;4.55;;;11.70;99.90;;;;;;4979737;28;20046;-78
2023/09/23 06:05:01;;;;;;;9.05;4.35;;;11.70;99.90;;;;;;4993308;28;20065;-79
2023/09/23 06:07:27;;;;;;;8.23;4.03;;;11.70;99.90;;;;;;4971667;28;20125;-79
2023/09/23 06:09:53;;;;;;;8.90;4.68;;;11.70;99.90;;;;;;4992702;28;20046;-79
2023/09/23 06:12:18;;;;;;;9.52;4.90;;;11.80;99.90;;;;;;4990163;28;20034;-80
2023/09/23 06:14:45;;;;;;;9.73;5.10;;;11.80;99.90;;;;;;4993711;28;20111;-78
2023/09/23 06:17:11;;;;;;;9.48;4.72;;;11.80;99.90;;;;;;4990706;28;20123;-80
2023/09/23 06:19:37;;;;;;;9.57;4.78;;;11.80;99.90;;;;;;4975550;28;20160;-79
2023/09/23 06:22:03;;;;;;;10.43;5.00;;;11.80;99.90;;;;;;4988711;28;20053;-79
2023/09/23 06:24:28;;;;;;;10.27;5.05;;;11.90;99.90;;;;;;4992189;28;20045;-78
2023/09/23 06:26:54;;;;;;;9.15;5.05;;;11.90;99.90;;;;;;4991482;28;20034;-79
2023/09/23 06:29:20;;;;;;;10.30;5.10;;;11.90;99.90;;;;;;4977553;28;20084;-79
2023/09/23 06:31:46;;;;;;;10.45;5.15;;;12.00;99.90;;;;;;4993587;28;20435;-80
2023/09/23 06:34:11;;;;;;;10.48;5.70;;;12.00;99.90;;;;;;4990535;28;20896;-80
2023/09/23 06:36:37;;;;;;;12.05;6.47;;;12.00;99.90;;;;;;4992523;28;20041;-79
2023/09/23 06:39:03;;;;;;;11.38;6.22;;;12.00;99.90;;;;;;5040352;28;20103;-79
2023/09/23 06:41:28;;;;;;;12.05;7.13;;;12.10;99.90;;;;;;5002010;28;20609;-79
2023/09/23 06:43:54;;;;;;;12.45;7.85;;;12.10;99.90;;;;;;5005794;28;20089;-80
2023/09/23 06:46:20;;;;;;;11.65;7.25;;;12.10;99.90;;;;;;4991324;28;20026;-79
2023/09/23 06:48:45;;;;;;;15.02;8.35;;;12.10;99.90;;;;;;5021232;28;20428;-81
2023/09/23 06:51:11;;;;;;;14.05;8.43;;;12.10;99.90;;;;;;4990381;28;20042;-81
2023/09/23 06:53:37;;;;;;;12.90;7.78;;;12.20;99.90;;;;;;4990385;28;20033;-81
2023/09/23 06:56:03;;;;;;;13.98;8.60;;;12.20;99.90;;;;;;5006208;28;20518;-81
2023/09/23 06:58:29;;;;;;;13.43;8.45;;;12.20;99.90;;;;;;4991779;28;20684;-81
2023/09/23 07:00:55;;;;;;;13.45;8.50;;;12.30;99.90;;;;;;4969648;28;20068;-81
2023/09/23 07:03:21;;;;;;;14.73;8.65;;;12.30;99.90;;;;;;4989523;28;20045;-81
2023/09/23 07:05:47;;;;;;;14.25;8.77;;;12.40;99.90;;;;;;5008413;28;20057;-81
2023/09/23 07:08:13;;;;;;;14.70;9.10;;;12.50;99.90;;;;;;5010466;28;20413;-81
2023/09/23 07:10:40;;;;;;;14.10;8.52;;;12.60;99.90;;;;;;5004714;28;20503;-81
2023/09/23 07:13:06;;;;;;;15.27;9.65;;;12.70;99.90;;;;;;5007705;28;20045;-81
2023/09/23 07:15:40;;;;;;;13.60;9.07;;;12.80;99.90;;;;;;5019641;28;20042;-81
2023/09/23 07:18:07;;;;;;;14.30;8.80;;;12.80;99.90;;;;;;4989612;28;20515;-81
2023/09/23 07:20:34;;;;;;;13.88;8.57;;;12.80;99.90;;;;;;4993210;28;20148;-81
2023/09/23 07:23:00;;;;;;;14.57;8.63;;;12.90;99.90;;;;;;5010194;28;20096;-81
2023/09/23 07:25:30;;;;;;;13.52;8.43;;;12.90;99.90;;;;;;5043578;28;20049;-80
2023/09/23 07:27:59;;;;;;;13.40;7.72;;;13.00;99.90;;;;;;4648203;28;9999914;-80
2023/09/23 07:30:25;;;;;;;12.88;8.20;;;13.00;99.90;;;;;;4993234;28;20208;-81
2023/09/23 07:32:50;;;;;;;11.77;7.45;;;13.00;99.90;;;;;;4971713;28;20100;-81
2023/09/23 07:35:17;;;;;;;13.30;8.02;;;13.00;99.90;;;;;;4987649;28;20486;-81
2023/09/23 07:37:43;;;;;;;15.18;8.55;;;13.00;99.90;;;;;;5008324;28;20137;-81
2023/09/23 07:40:09;;;;;;;13.10;8.23;;;13.10;99.90;;;;;;4979493;28;20129;-82
2023/09/23 07:42:35;;;;;;;13.43;8.57;;;13.10;99.90;;;;;;4967561;28;20037;-81
2023/09/23 07:45:00;;;;;;;14.88;8.57;;;13.10;99.90;;;;;;4985405;28;20048;-82
2023/09/23 07:47:26;;;;;;;14.35;9.35;;;13.20;99.90;;;;;;5015863;28;20099;-82
2023/09/23 07:49:52;;;;;;;14.75;8.60;;;13.30;99.90;;;;;;4987323;28;20103;-82
2023/09/23 07:52:18;;;;;;;14.80;8.63;;;13.50;99.90;;;;;;5000068;28;20041;-82
2023/09/23 07:54:43;;;;;;;14.23;8.90;;;13.50;99.90;;;;;;5004014;28;20044;-82
2023/09/23 07:57:09;;;;;;;14.25;8.70;;;13.60;99.90;;;;;;4988476;28;20122;-82
2023/09/23 07:59:35;;;;;;;12.55;7.38;;;13.60;99.90;;;;;;4992650;28;20415;-83
2023/09/23 08:02:00;;;;;;;12.57;7.90;;;13.60;99.90;;;;;;5007484;28;20033;-83
2023/09/23 08:04:26;;;;;;;13.52;8.98;;;13.60;99.90;;;;;;4958059;28;20096;-83
2023/09/23 08:06:52;;;;;;;13.68;8.57;;;13.70;99.90;;;;;;4958328;28;20040;-82
2023/09/23 08:09:17;;;;;;;13.90;8.32;;;13.80;99.90;;;;;;4976344;28;20053;-83
2023/09/23 08:11:43;;;;;;;13.68;8.35;;;13.90;99.90;;;;;;5019673;28;20045;-82
2023/09/23 08:14:09;;;;;;;13.90;8.93;;;14.10;99.90;;;;;;4992699;28;20042;-82
2023/09/23 08:16:34;;;;;;;13.27;8.80;;;14.20;99.90;;;;;;5007564;28;20068;-83
2023/09/23 08:19:00;;;;;;;13.32;8.48;;;14.30;99.90;;;;;;4974672;28;20095;-83
2023/09/23 08:21:26;;;;;;;13.13;7.90;;;14.50;99.90;;;;;;4991641;28;20064;-83
2023/09/23 08:23:52;;;;;;;13.15;7.68;;;14.60;99.90;;;;;;5004736;28;20034;-83
2023/09/23 08:26:17;;;;;;;12.48;7.70;;;14.70;99.90;;;;;;4989478;28;20046;-83
2023/09/23 08:28:43;;;;;;;12.93;8.13;;;14.80;99.90;;;;;;5008156;28;20046;-83
2023/09/23 08:31:09;;;;;;;15.20;8.35;;;14.90;99.90;;;;;;4981720;28;20033;-84
2023/09/23 08:33:35;;;;;;;12.80;7.45;;;15.10;99.90;;;;;;5006955;28;20092;-82
2023/09/23 08:36:01;;;;;;;12.90;7.47;;;15.20;99.90;;;;;;5009450;28;20355;-82
2023/09/23 08:38:27;;;;;;;11.18;7.03;;;15.20;99.90;;;;;;4972375;28;20073;-81
2023/09/23 08:40:53;;;;;;;11.48;6.65;;;15.10;99.90;;;;;;4992576;28;20046;-81
2023/09/23 08:43:36;;;;;;;12.18;7.22;;;15.00;99.90;;;;;;5042362;28;20050;-82
2023/09/23 08:46:03;;;;;;;;;;;14.90;99.90;;;;;;5013585;28;20102;-81
2023/09/23 08:48:31;;;;;;;12.15;6.72;;;14.90;99.90;;;;;;4999924;28;20385;-81
2023/09/23 08:50:58;;;;;;;12.55;6.85;;;14.90;99.90;;;;;;5006435;28;20034;-81
2023/09/23 08:53:27;;;;;;;12.88;7.38;;;14.90;99.90;;;;;;5000851;28;20536;-81
2023/09/23 08:55:53;;;;;;;11.93;6.45;;;14.90;99.90;;;;;;4993940;28;20258;-81
2023/09/23 08:58:20;;;;;;;12.88;6.55;;;15.10;99.90;;;;;;5033544;28;20292;-81
2023/09/23 09:00:46;;;;;;;12.30;6.18;;;15.30;99.90;;;;;;5017392;28;20290;-82
2023/09/23 09:03:13;;;;;;;11.57;6.05;;;15.30;99.90;;;;;;5001739;28;20080;-81
2023/09/23 09:05:40;;;;;;;10.05;5.88;;;15.40;99.90;;;;;;4994490;28;20108;-81
2023/09/23 09:08:06;;;;;;;9.65;5.20;;;15.40;99.90;;;;;;5013012;28;20030;-81
2023/09/23 09:10:32;;;;;;;10.07;5.13;;;15.40;99.90;;;;;;5016832;28;20101;-81
2023/09/23 09:13:05;;;;;;;10.27;5.20;;;15.50;99.90;;;;;;4996742;28;20042;-80
2023/09/23 09:15:34;;;;;;;11.18;4.93;;;15.70;99.90;;;;;;5015884;28;20046;-81
2023/09/23 09:18:01;;;;;;;8.52;4.20;;;15.90;99.90;;;;;;4990993;28;20053;-81
2023/09/23 09:20:31;;;;;;;9.63;4.57;;;16.10;99.90;;;;;;4966399;28;20046;-81
2023/09/23 09:22:57;;;;;;;9.57;4.45;;;16.10;99.90;;;;;;4991425;28;20069;-81
2023/09/23 09:25:23;;;;;;;9.45;4.32;;;16.20;99.90;;;;;;5004080;28;20101;-81
2023/09/23 09:27:53;;;;;;;8.20;4.00;;;16.30;99.90;;;;;;4988894;28;20458;-81
2023/09/23 09:30:19;;;;;;;8.77;4.20;;;16.50;99.90;;;;;;5039699;28;20045;-81
2023/09/23 09:32:47;;;;;;;8.88;4.20;;;16.60;99.90;;;;;;5006720;28;20038;-81
2023/09/23 09:35:17;;;;;;;9.60;4.25;;;16.70;99.90;;;;;;4983983;28;20041;-82
2023/09/23 09:37:45;;;;;;;10.32;4.03;;;16.70;99.90;;;;;;4991409;28;20060;-81
2023/09/23 09:40:21;;;;;;;8.60;3.67;;;16.70;99.90;;;;;;5006986;28;20077;-81
2023/09/23 09:42:59;;;;;;;9.18;3.75;;;16.70;99.90;;;;;;4988212;28;20038;-81
2023/09/23 09:45:26;;;;;;;8.85;3.90;;;16.60;99.90;;;;;;4990110;28;20033;-82
2023/09/23 09:47:55;;;;;;;7.72;3.53;;;16.60;99.90;;;;;;5007087;28;20037;-82
2023/09/23 09:50:23;;;;;;;7.70;3.47;;;16.70;99.90;;;;;;4989712;28;20132;-84
2023/09/23 09:52:49;;;;;;;8.65;3.70;;;16.80;99.90;;;;;;5008286;28;20396;-83
2023/09/23 09:55:18;;;;;;;9.52;3.53;;;16.90;99.90;;;;;;4990889;28;20030;-83
2023/09/23 09:57:52;;;;;;;7.63;3.20;;;16.90;99.90;;;;;;5005649;28;20099;-83
2023/09/23 10:00:28;;;;;;;7.50;3.00;;;16.80;99.90;;;;;;4991871;28;20171;-83
2023/09/23 10:03:02;;;;;;;7.75;3.10;;;16.70;99.90;;;;;;5005705;28;20072;-83
2023/09/23 10:05:50;;;;;;;8.68;2.90;;;16.50;99.90;;;;;;5003887;28;20045;-83
2023/09/23 10:08:27;;;;;;;6.22;2.53;;;16.40;99.90;;;;;;5035692;28;20046;-81
2023/09/23 10:11:04;;;;;;;7.90;2.40;;;16.40;99.90;;;;;;4989381;28;20092;-81
2023/09/23 10:13:31;;;;;;;8.45;2.65;;;16.50;99.90;;;;;;5021422;28;20484;-80
2023/09/23 10:16:04;;;;;;;7.80;2.70;;;16.70;99.90;;;;;;4989210;28;20096;-81
2023/09/23 10:18:36;;;;;;;7.10;2.40;;;16.90;99.90;;;;;;5004623;28;20107;-81
2023/09/23 10:21:03;;;;;;;6.43;2.33;;;17.10;99.90;;;;;;5003541;28;20129;-81
2023/09/23 10:23:36;;;;;;;7.55;2.30;;;17.20;99.90;;;;;;4971365;28;20042;-82
2023/09/23 10:26:13;;;;;;;5.80;2.00;;;17.30;99.90;;;;;;5003121;28;20061;-81
2023/09/23 10:28:39;;;;;;;7.25;2.47;;;17.20;99.90;;;;;;5024406;28;20100;-82
2023/09/23 10:31:06;;;;;;;6.38;2.25;;;17.20;99.90;;;;;;5022242;28;20041;-81
2023/09/23 10:33:35;;;;;;;7.60;2.20;;;17.30;99.90;;;;;;5036752;28;21589;-81
2023/09/23 10:36:03;;;;;;;4.90;1.88;;;17.20;99.90;;;;;;5004712;28;20112;-81
2023/09/23 10:38:34;;;;;;;6.80;2.10;;;17.20;99.90;;;;;;5004321;28;20550;-81
2023/09/23 10:41:01;;;;;;;4.78;1.92;;;17.00;99.90;;;;;;5023929;28;20037;-81
2023/09/23 10:43:27;;;;;;;3.92;1.83;;;16.90;99.90;;;;;;5003781;28;20050;-81
2023/09/23 10:45:54;;;;;;;6.95;2.00;;;16.90;99.90;;;;;;4990625;28;20046;-81
2023/09/23 10:48:20;;;;;;;4.97;1.88;;;16.70;99.90;;;;;;5019900;28;20081;-81
2023/09/23 10:50:48;;;;;;;4.63;1.80;;;16.70;99.90;;;;;;5021699;28;20491;-82
2023/09/23 10:53:14;;;;;;;7.05;1.90;;;16.50;99.90;;;;;;5005130;28;20036;-81
2023/09/23 10:55:41;;;;;;;3.92;1.80;;;;;;;;;;5037969;28;20195;-83
2023/09/23 10:58:10;;;;;;;6.40;1.70;;;16.30;99.90;;;;;;5004722;28;20176;-84
2023/09/23 11:00:37;;;;;;;4.95;1.77;;;16.30;99.90;;;;;;5004826;28;20045;-83
2023/09/23 11:03:21;;;;;;;3.10;1.50;;;16.30;99.90;;;;;;4985451;28;20683;-83
2023/09/23 11:05:48;;;;;;;6.28;1.52;;;16.20;99.90;;;;;;4986549;28;20041;-81
2023/09/23 11:08:15;;;;;;;5.88;1.58;;;16.20;99.90;;;;;;4999368;28;20081;-82
2023/09/23 11:10:43;;;;;;;5.90;1.98;;;16.20;99.90;;;;;;5000975;28;20041;-82
2023/09/23 11:13:10;;;;;;;5.00;1.90;;;16.20;99.90;;;;;;5011137;28;20246;-80
2023/09/23 11:15:41;;;;;;;6.43;2.05;;;16.20;99.90;;;;;;4994501;28;20089;-82
2023/09/23 11:18:13;;;;;;;6.00;2.15;;;16.20;99.90;;;;;;4993091;28;20069;-81
2023/09/23 11:20:43;;;;;;;5.32;2.17;;;16.20;99.90;;;;;;5025404;28;20109;-81
2023/09/23 11:23:10;;;;;;;7.93;2.40;;;16.20;99.90;;;;;;4988809;28;20046;-81
2023/09/23 11:25:37;;;;;;;6.10;1.85;;;16.10;99.90;;;;;;5000288;28;20056;-81
2023/09/23 11:28:03;;;;;;;6.82;2.50;;;16.10;99.90;;;;;;4988189;28;20060;-84
2023/09/23 11:30:29;;;;;;;6.10;2.20;;;16.00;99.90;;;;;;5004327;28;20045;-84
2023/09/23 11:32:56;;;;;;;6.80;2.13;;;16.00;99.90;;;;;;5012680;28;20310;-84
2023/09/23 11:35:23;;;;;;;5.57;2.17;;;15.90;99.90;;;;;;4988137;28;20057;-84
2023/09/23 11:37:49;;;;;;;6.82;2.42;;;15.90;99.90;;;;;;4987758;28;20384;-85
2023/09/23 11:40:16;;;;;;;5.88;2.20;;;15.80;99.90;;;;;;4998632;28;20075;-85
2023/09/23 11:42:41;;;;;;;6.32;2.60;;;15.80;99.90;;;;;;5009629;28;20137;-83
2023/09/23 11:45:12;;;;;;;8.38;2.42;;;15.80;99.90;;;;;;5000964;28;20022;-84
2023/09/23 11:47:38;;;;;;;6.75;2.50;;;16.00;99.90;;;;;;4996231;28;20060;-83
2023/09/23 11:50:06;;;;;;;5.40;2.20;;;16.00;99.90;;;;;;5013839;28;20062;-82
2023/09/23 11:52:34;;;;;;;6.45;2.10;;;16.10;99.90;;;;;;4967793;28;20091;-83
2023/09/23 11:55:00;;;;;;;4.60;2.05;;;16.10;99.90;;;;;;5017494;28;20279;-82
2023/09/23 11:57:26;;;;;;;4.00;1.70;;;16.10;99.90;;;;;;5012985;28;20025;-82
2023/09/23 11:59:52;;;;;;;4.30;1.58;;;16.00;99.90;;;;;;4981711;28;20132;-83
2023/09/23 12:02:19;;;;;;;5.95;1.77;;;16.00;99.90;;;;;;5011189;28;20042;-84
2023/09/23 12:04:48;;;;;;;5.90;1.98;;;15.90;99.90;;;;;;4983592;28;20444;-83
2023/09/23 12:07:15;;;;;;;6.38;1.98;;;15.90;99.90;;;;;;4982455;28;20029;-83
2023/09/23 12:09:41;;;;;;;5.57;1.80;;;15.80;99.90;;;;;;5011625;28;20030;-83
2023/09/23 12:12:09;;;;;;;5.30;2.00;;;15.70;99.90;;;;;;4966005;28;20176;-83
2023/09/23 12:14:34;;;;;;;5.82;2.05;;;15.60;99.90;;;;;;4997060;28;20054;-84
2023/09/23 12:17:00;;;;;;;5.85;1.90;;;15.60;99.90;;;;;;4968003;28;20184;-83
2023/09/23 12:19:26;;;;;;;7.78;2.22;;;15.60;99.90;;;;;;5013348;28;20054;-83
2023/09/23 12:21:51;;;;;;;4.45;1.95;;;15.60;99.90;;;;;;4983018;28;20037;-83
2023/09/23 12:24:17;;;;;;;6.07;1.92;;;15.60;99.90;;;;;;5024157;28;20049;-82
2023/09/23 12:26:43;;;;;;;6.20;2.08;;;15.60;99.90;;;;;;5013903;28;20179;-82
2023/09/23 12:29:08;;;;;;;4.95;1.70;;;15.60;99.90;;;;;;5012769;28;20037;-82
2023/09/23 12:31:35;;;;;;;3.97;1.60;;;;;;;;;;5006121;28;20302;-82
2023/09/23 12:34:00;;;;;;;3.38;1.35;;;15.40;99.90;;;;;;4987339;28;20042;-82
2023/09/23 12:36:26;;;;;;;4.45;1.40;;;15.60;99.90;;;;;;4987920;28;20037;-81
2023/09/23 12:38:55;;;;;;;3.25;1.40;;;15.60;99.90;;;;;;5012606;28;20106;-81
2023/09/23 12:41:21;;;;;;;3.83;1.50;;;15.70;99.90;;;;;;5016987;28;20046;-82
2023/09/23 12:43:46;;;;;;;4.13;1.50;;;15.60;99.90;;;;;;5020845;28;20103;-81
2023/09/23 12:46:12;;;;;;;4.15;1.50;;;15.60;99.90;;;;;;5003367;28;20134;-81